Terminal Aerodrome Forecast
Issued by NWS Shreveport, LA

Home | Current Version | Previous Version | Text Only | Print | Product List | Glossary On
Versions: 1 2 3 4 5 6 7 8 9 10 11 12
000
FTUS44 KSHV 041751
TAFMLU
TAF
KMLU 041751Z 0418/0518 VRB06KT P6SM SCT060 BKN290
     FM042000 05004KT P6SM VCSH BKN070 BKN290
     FM050100 VRB03KT P6SM FEW150 BKN250
     FM051400 23007KT P6SM BKN100 BKN250=

USA.gov is the U.S. government's official web portal to all federal, state and local government web resources and services.